sensor_id;sensor_type;location;lat;lon;timestamp;temperature;humidity
79491;SHT31;73788;53.048;18.472;2023-12-28T00:02:20;0.64;77.03
79491;SHT31;73788;53.048;18.472;2023-12-28T00:04:47;0.60;77.10
79491;SHT31;73788;53.048;18.472;2023-12-28T00:07:14;0.58;77.11
79491;SHT31;73788;53.048;18.472;2023-12-28T00:09:41;0.55;77.17
79491;SHT31;73788;53.048;18.472;2023-12-28T00:12:08;0.52;77.20
79491;SHT31;73788;53.048;18.472;2023-12-28T00:14:36;0.52;77.23
79491;SHT31;73788;53.048;18.472;2023-12-28T00:17:03;0.51;77.30
79491;SHT31;73788;53.048;18.472;2023-12-28T00:19:30;0.51;77.31
79491;SHT31;73788;53.048;18.472;2023-12-28T00:21:57;0.48;77.34
79491;SHT31;73788;53.048;18.472;2023-12-28T00:24:24;0.45;77.40
79491;SHT31;73788;53.048;18.472;2023-12-28T00:26:51;0.44;77.42
79491;SHT31;73788;53.048;18.472;2023-12-28T00:29:18;0.43;77.48
79491;SHT31;73788;53.048;18.472;2023-12-28T00:31:45;0.38;77.50
79491;SHT31;73788;53.048;18.472;2023-12-28T00:34:12;0.34;77.53
79491;SHT31;73788;53.048;18.472;2023-12-28T00:36:39;0.34;77.60
79491;SHT31;73788;53.048;18.472;2023-12-28T00:39:06;0.34;77.60
79491;SHT31;73788;53.048;18.472;2023-12-28T00:41:34;0.38;77.68
79491;SHT31;73788;53.048;18.472;2023-12-28T00:44:02;0.40;77.70
79491;SHT31;73788;53.048;18.472;2023-12-28T00:46:29;0.42;77.75
79491;SHT31;73788;53.048;18.472;2023-12-28T00:48:56;0.39;77.80
79491;SHT31;73788;53.048;18.472;2023-12-28T00:51:23;0.36;77.82
79491;SHT31;73788;53.048;18.472;2023-12-28T00:53:51;0.37;77.88
79491;SHT31;73788;53.048;18.472;2023-12-28T00:56:18;0.39;77.90
79491;SHT31;73788;53.048;18.472;2023-12-28T00:58:47;0.36;77.91
79491;SHT31;73788;53.048;18.472;2023-12-28T01:01:14;0.34;78.00
79491;SHT31;73788;53.048;18.472;2023-12-28T01:03:42;0.29;78.00
79491;SHT31;73788;53.048;18.472;2023-12-28T01:06:09;0.30;78.01
79491;SHT31;73788;53.048;18.472;2023-12-28T01:08:36;0.31;78.10
79491;SHT31;73788;53.048;18.472;2023-12-28T01:11:03;0.30;78.11
79491;SHT31;73788;53.048;18.472;2023-12-28T01:13:30;0.29;78.17
79491;SHT31;73788;53.048;18.472;2023-12-28T01:15:57;0.29;78.20
79491;SHT31;73788;53.048;18.472;2023-12-28T01:18:25;0.29;78.22
79491;SHT31;73788;53.048;18.472;2023-12-28T01:20:52;0.32;78.29
79491;SHT31;73788;53.048;18.472;2023-12-28T01:23:19;0.36;78.30
79491;SHT31;73788;53.048;18.472;2023-12-28T01:25:46;0.39;78.34
79491;SHT31;73788;53.048;18.472;2023-12-28T01:28:13;0.38;78.40
79491;SHT31;73788;53.048;18.472;2023-12-28T01:30:40;0.40;78.42
79491;SHT31;73788;53.048;18.472;2023-12-28T01:33:07;0.42;78.49
79491;SHT31;73788;53.048;18.472;2023-12-28T01:35:34;0.43;78.50
79491;SHT31;73788;53.048;18.472;2023-12-28T01:38:01;0.40;78.51
79491;SHT31;73788;53.048;18.472;2023-12-28T01:40:29;0.40;78.57
79491;SHT31;73788;53.048;18.472;2023-12-28T01:42:57;0.43;78.60
79491;SHT31;73788;53.048;18.472;2023-12-28T01:45:24;0.43;78.61
79491;SHT31;73788;53.048;18.472;2023-12-28T01:47:55;0.44;78.70
79491;SHT31;73788;53.048;18.472;2023-12-28T01:50:25;0.42;78.70
79491;SHT31;73788;53.048;18.472;2023-12-28T01:52:55;0.40;78.74
79491;SHT31;73788;53.048;18.472;2023-12-28T01:55:24;0.40;78.80
79491;SHT31;73788;53.048;18.472;2023-12-28T01:57:53;0.40;78.80
79491;SHT31;73788;53.048;18.472;2023-12-28T02:00:23;0.43;78.86
79491;SHT31;73788;53.048;18.472;2023-12-28T02:02:51;0.45;78.90
79491;SHT31;73788;53.048;18.472;2023-12-28T02:05:19;0.43;78.90
79491;SHT31;73788;53.048;18.472;2023-12-28T02:07:46;0.43;78.97
79491;SHT31;73788;53.048;18.472;2023-12-28T02:10:14;0.47;79.00
79491;SHT31;73788;53.048;18.472;2023-12-28T02:12:41;0.54;79.02
79491;SHT31;73788;53.048;18.472;2023-12-28T02:15:09;0.62;79.10
79491;SHT31;73788;53.048;18.472;2023-12-28T02:17:40;0.66;79.10
79491;SHT31;73788;53.048;18.472;2023-12-28T02:20:19;0.68;79.17
79491;SHT31;73788;53.048;18.472;2023-12-28T02:22:48;0.73;79.20
79491;SHT31;73788;53.048;18.472;2023-12-28T02:25:15;0.77;79.22
79491;SHT31;73788;53.048;18.472;2023-12-28T02:27:43;0.79;79.29
79491;SHT31;73788;53.048;18.472;2023-12-28T02:30:18;0.81;79.30
79491;SHT31;73788;53.048;18.472;2023-12-28T02:32:52;0.81;79.35
79491;SHT31;73788;53.048;18.472;2023-12-28T02:35:43;0.81;79.39
79491;SHT31;73788;53.048;18.472;2023-12-28T02:38:18;0.85;79.40
79491;SHT31;73788;53.048;18.472;2023-12-28T02:40:46;0.89;79.46
79491;SHT31;73788;53.048;18.472;2023-12-28T02:43:15;0.90;79.49
79491;SHT31;73788;53.048;18.472;2023-12-28T02:45:43;0.91;79.51
79491;SHT31;73788;53.048;18.472;2023-12-28T02:48:10;0.95;79.57
79491;SHT31;73788;53.048;18.472;2023-12-28T02:50:37;0.99;79.60
79491;SHT31;73788;53.048;18.472;2023-12-28T02:53:04;0.99;79.62
79491;SHT31;73788;53.048;18.472;2023-12-28T02:55:32;1.01;79.68
79491;SHT31;73788;53.048;18.472;2023-12-28T02:57:59;1.02;79.70
79491;SHT31;73788;53.048;18.472;2023-12-28T03:00:26;1.13;79.71
79491;SHT31;73788;53.048;18.472;2023-12-28T03:02:54;1.16;79.78
79491;SHT31;73788;53.048;18.472;2023-12-28T03:05:21;1.19;79.80
79491;SHT31;73788;53.048;18.472;2023-12-28T03:07:48;1.23;79.80
79491;SHT31;73788;53.048;18.472;2023-12-28T03:10:16;1.26;79.86
79491;SHT31;73788;53.048;18.472;2023-12-28T03:12:43;1.31;79.90
79491;SHT31;73788;53.048;18.472;2023-12-28T03:15:10;1.29;79.90
79491;SHT31;73788;53.048;18.472;2023-12-28T03:17:37;1.28;79.92
79491;SHT31;73788;53.048;18.472;2023-12-28T03:20:05;1.31;79.99
79491;SHT31;73788;53.048;18.472;2023-12-28T03:22:33;1.30;80.00
79491;SHT31;73788;53.048;18.472;2023-12-28T03:25:00;1.30;80.01
79491;SHT31;73788;53.048;18.472;2023-12-28T03:27:27;1.33;80.07
79491;SHT31;73788;53.048;18.472;2023-12-28T03:29:54;1.35;80.09
79491;SHT31;73788;53.048;18.472;2023-12-28T03:32:21;1.37;80.10
79491;SHT31;73788;53.048;18.472;2023-12-28T03:34:48;1.38;80.12
79491;SHT31;73788;53.048;18.472;2023-12-28T03:37:16;1.40;80.17
79491;SHT31;73788;53.048;18.472;2023-12-28T03:39:43;1.38;80.20
79491;SHT31;73788;53.048;18.472;2023-12-28T03:42:10;1.35;80.20
79491;SHT31;73788;53.048;18.472;2023-12-28T03:44:37;1.33;80.21
79491;SHT31;73788;53.048;18.472;2023-12-28T03:47:04;1.31;80.24
79491;SHT31;73788;53.048;18.472;2023-12-28T03:49:31;1.29;80.28
79491;SHT31;73788;53.048;18.472;2023-12-28T03:51:58;1.24;80.29
79491;SHT31;73788;53.048;18.472;2023-12-28T03:54:25;1.26;80.30
79491;SHT31;73788;53.048;18.472;2023-12-28T03:56:52;1.28;80.30
79491;SHT31;73788;53.048;18.472;2023-12-28T03:59:20;1.25;80.35
79491;SHT31;73788;53.048;18.472;2023-12-28T04:01:47;1.24;80.40
79491;SHT31;73788;53.048;18.472;2023-12-28T04:04:15;1.21;80.40
79491;SHT31;73788;53.048;18.472;2023-12-28T04:06:42;1.22;80.40
79491;SHT31;73788;53.048;18.472;2023-12-28T04:09:13;1.23;80.40
79491;SHT31;73788;53.048;18.472;2023-12-28T04:11:40;1.22;80.42
79491;SHT31;73788;53.048;18.472;2023-12-28T04:14:08;1.19;80.49
79491;SHT31;73788;53.048;18.472;2023-12-28T04:16:35;1.20;80.50
79491;SHT31;73788;53.048;18.472;2023-12-28T04:19:02;1.23;80.50
79491;SHT31;73788;53.048;18.472;2023-12-28T04:21:29;1.26;80.50
79491;SHT31;73788;53.048;18.472;2023-12-28T04:23:56;1.31;80.53
79491;SHT31;73788;53.048;18.472;2023-12-28T04:26:23;1.37;80.59
79491;SHT31;73788;53.048;18.472;2023-12-28T04:28:51;1.40;80.60
79491;SHT31;73788;53.048;18.472;2023-12-28T04:31:18;1.39;80.60
79491;SHT31;73788;53.048;18.472;2023-12-28T04:33:45;1.40;80.62
79491;SHT31;73788;53.048;18.472;2023-12-28T04:36:12;1.42;80.63
79491;SHT31;73788;53.048;18.472;2023-12-28T04:38:39;1.44;80.68
79491;SHT31;73788;53.048;18.472;2023-12-28T04:41:06;1.43;80.70
79491;SHT31;73788;53.048;18.472;2023-12-28T04:43:33;1.45;80.70
79491;SHT31;73788;53.048;18.472;2023-12-28T04:46:04;1.46;80.70
79491;SHT31;73788;53.048;18.472;2023-12-28T04:48:31;1.49;80.75
79491;SHT31;73788;53.048;18.472;2023-12-28T04:51:01;1.50;80.79
79491;SHT31;73788;53.048;18.472;2023-12-28T04:53:29;1.50;80.80
79491;SHT31;73788;53.048;18.472;2023-12-28T04:55:56;1.50;80.80
79491;SHT31;73788;53.048;18.472;2023-12-28T04:58:23;1.51;80.80
79491;SHT31;73788;53.048;18.472;2023-12-28T05:00:50;1.53;80.81
79491;SHT31;73788;53.048;18.472;2023-12-28T05:03:17;1.53;80.86
79491;SHT31;73788;53.048;18.472;2023-12-28T05:05:45;1.53;80.87
79491;SHT31;73788;53.048;18.472;2023-12-28T05:08:12;1.53;80.90
79491;SHT31;73788;53.048;18.472;2023-12-28T05:10:39;1.52;80.90
79491;SHT31;73788;53.048;18.472;2023-12-28T05:13:06;1.51;80.90
79491;SHT31;73788;53.048;18.472;2023-12-28T05:15:33;1.50;80.90
79491;SHT31;73788;53.048;18.472;2023-12-28T05:18:00;1.47;80.92
79491;SHT31;73788;53.048;18.472;2023-12-28T05:20:27;1.46;80.93
79491;SHT31;73788;53.048;18.472;2023-12-28T05:22:54;1.43;80.93
79491;SHT31;73788;53.048;18.472;2023-12-28T05:25:21;1.41;80.96
79491;SHT31;73788;53.048;18.472;2023-12-28T05:27:49;1.40;80.99
79491;SHT31;73788;53.048;18.472;2023-12-28T05:30:16;1.39;81.00
79491;SHT31;73788;53.048;18.472;2023-12-28T05:32:43;1.38;81.00
79491;SHT31;73788;53.048;18.472;2023-12-28T05:35:10;1.39;81.00
79491;SHT31;73788;53.048;18.472;2023-12-28T05:37:37;1.38;81.00
79491;SHT31;73788;53.048;18.472;2023-12-28T05:40:05;1.39;81.03
79491;SHT31;73788;53.048;18.472;2023-12-28T05:42:32;1.43;81.07
79491;SHT31;73788;53.048;18.472;2023-12-28T05:44:59;1.45;81.10
79491;SHT31;73788;53.048;18.472;2023-12-28T05:47:26;1.51;81.10
79491;SHT31;73788;53.048;18.472;2023-12-28T05:49:53;1.54;81.10
79491;SHT31;73788;53.048;18.472;2023-12-28T05:52:21;1.60;81.11
79491;SHT31;73788;53.048;18.472;2023-12-28T05:54:48;1.66;81.14
79491;SHT31;73788;53.048;18.472;2023-12-28T05:57:15;1.72;81.15
79491;SHT31;73788;53.048;18.472;2023-12-28T05:59:42;1.78;81.20
79491;SHT31;73788;53.048;18.472;2023-12-28T06:02:09;1.84;81.20
79491;SHT31;73788;53.048;18.472;2023-12-28T06:04:36;1.89;81.20
79491;SHT31;73788;53.048;18.472;2023-12-28T06:07:04;1.94;81.23
79491;SHT31;73788;53.048;18.472;2023-12-28T06:09:31;2.01;81.27
79491;SHT31;73788;53.048;18.472;2023-12-28T06:11:59;2.04;81.30
79491;SHT31;73788;53.048;18.472;2023-12-28T06:14:26;2.07;81.30
79491;SHT31;73788;53.048;18.472;2023-12-28T06:16:53;2.11;81.30
79491;SHT31;73788;53.048;18.472;2023-12-28T06:19:20;2.15;81.31
79491;SHT31;73788;53.048;18.472;2023-12-28T06:21:48;2.19;81.34
79491;SHT31;73788;53.048;18.472;2023-12-28T06:24:16;2.20;81.38
79491;SHT31;73788;53.048;18.472;2023-12-28T06:26:43;2.21;81.40
79491;SHT31;73788;53.048;18.472;2023-12-28T06:29:11;2.27;81.40
79491;SHT31;73788;53.048;18.472;2023-12-28T06:31:39;2.36;81.40
79491;SHT31;73788;53.048;18.472;2023-12-28T06:34:06;2.41;81.42
79491;SHT31;73788;53.048;18.472;2023-12-28T06:36:33;2.45;81.47
79491;SHT31;73788;53.048;18.472;2023-12-28T06:39:01;2.45;81.48
79491;SHT31;73788;53.048;18.472;2023-12-28T06:41:28;2.48;81.49
79491;SHT31;73788;53.048;18.472;2023-12-28T06:43:55;2.52;81.50
79491;SHT31;73788;53.048;18.472;2023-12-28T06:46:22;2.55;81.50
79491;SHT31;73788;53.048;18.472;2023-12-28T06:48:49;2.59;81.52
79491;SHT31;73788;53.048;18.472;2023-12-28T06:51:19;2.65;81.52
79491;SHT31;73788;53.048;18.472;2023-12-28T06:53:48;2.71;81.55
79491;SHT31;73788;53.048;18.472;2023-12-28T06:56:15;2.75;81.59
79491;SHT31;73788;53.048;18.472;2023-12-28T06:58:42;2.85;81.60
79491;SHT31;73788;53.048;18.472;2023-12-28T07:01:09;2.94;81.60
79491;SHT31;73788;53.048;18.472;2023-12-28T07:03:37;2.99;81.61
79491;SHT31;73788;53.048;18.472;2023-12-28T07:06:04;3.04;81.63
79491;SHT31;73788;53.048;18.472;2023-12-28T07:08:32;3.08;81.66
79491;SHT31;73788;53.048;18.472;2023-12-28T07:10:59;3.14;81.69
79491;SHT31;73788;53.048;18.472;2023-12-28T07:13:26;3.21;81.70
79491;SHT31;73788;53.048;18.472;2023-12-28T07:15:53;3.28;81.70
79491;SHT31;73788;53.048;18.472;2023-12-28T07:18:20;3.34;81.70
79491;SHT31;73788;53.048;18.472;2023-12-28T07:20:48;3.36;81.70
79491;SHT31;73788;53.048;18.472;2023-12-28T07:23:15;3.40;81.73
79491;SHT31;73788;53.048;18.472;2023-12-28T07:25:42;3.48;81.77
79491;SHT31;73788;53.048;18.472;2023-12-28T07:28:09;3.56;81.80
79491;SHT31;73788;53.048;18.472;2023-12-28T07:30:37;3.56;81.79
79491;SHT31;73788;53.048;18.472;2023-12-28T07:33:04;3.58;81.80
79491;SHT31;73788;53.048;18.472;2023-12-28T07:35:31;3.58;81.80
79491;SHT31;73788;53.048;18.472;2023-12-28T07:37:59;3.57;81.80
79491;SHT31;73788;53.048;18.472;2023-12-28T07:40:26;3.61;81.80
79491;SHT31;73788;53.048;18.472;2023-12-28T07:42:53;3.62;81.80
79491;SHT31;73788;53.048;18.472;2023-12-28T07:45:20;3.65;81.80
79491;SHT31;73788;53.048;18.472;2023-12-28T07:47:50;3.67;81.80
79491;SHT31;73788;53.048;18.472;2023-12-28T07:50:18;3.69;81.80
79491;SHT31;73788;53.048;18.472;2023-12-28T07:52:47;3.68;81.81
79491;SHT31;73788;53.048;18.472;2023-12-28T07:55:15;3.67;81.81
79491;SHT31;73788;53.048;18.472;2023-12-28T07:57:42;3.64;81.80
79491;SHT31;73788;53.048;18.472;2023-12-28T08:00:10;3.65;81.86
79491;SHT31;73788;53.048;18.472;2023-12-28T08:02:37;3.68;81.89
79491;SHT31;73788;53.048;18.472;2023-12-28T08:05:05;3.70;81.86
79491;SHT31;73788;53.048;18.472;2023-12-28T08:07:32;3.70;81.89
79491;SHT31;73788;53.048;18.472;2023-12-28T08:10:00;3.68;81.90
79491;SHT31;73788;53.048;18.472;2023-12-28T08:12:27;3.67;81.90
79491;SHT31;73788;53.048;18.472;2023-12-28T08:14:55;3.67;81.89
79491;SHT31;73788;53.048;18.472;2023-12-28T08:17:22;3.69;81.90
79491;SHT31;73788;53.048;18.472;2023-12-28T08:19:50;3.74;81.90
79491;SHT31;73788;53.048;18.472;2023-12-28T08:22:17;3.78;81.90
79491;SHT31;73788;53.048;18.472;2023-12-28T08:24:45;3.82;81.90
79491;SHT31;73788;53.048;18.472;2023-12-28T08:27:12;3.86;81.90
79491;SHT31;73788;53.048;18.472;2023-12-28T08:29:40;3.89;81.91
79491;SHT31;73788;53.048;18.472;2023-12-28T08:32:11;3.97;81.92
79491;SHT31;73788;53.048;18.472;2023-12-28T08:34:39;4.02;81.98
79491;SHT31;73788;53.048;18.472;2023-12-28T08:37:06;4.10;81.98
79491;SHT31;73788;53.048;18.472;2023-12-28T08:39:33;4.19;82.00
79491;SHT31;73788;53.048;18.472;2023-12-28T08:42:01;4.31;82.00
79491;SHT31;73788;53.048;18.472;2023-12-28T08:44:28;4.41;82.00
79491;SHT31;73788;53.048;18.472;2023-12-28T08:46:55;4.52;82.02
79491;SHT31;73788;53.048;18.472;2023-12-28T08:49:22;4.62;82.06
79491;SHT31;73788;53.048;18.472;2023-12-28T08:51:49;4.73;82.09
79491;SHT31;73788;53.048;18.472;2023-12-28T08:54:16;4.88;82.10
79491;SHT31;73788;53.048;18.472;2023-12-28T08:56:44;4.99;82.10
79491;SHT31;73788;53.048;18.472;2023-12-28T08:59:11;5.12;82.12
79491;SHT31;73788;53.048;18.472;2023-12-28T09:01:38;5.27;82.16
79491;SHT31;73788;53.048;18.472;2023-12-28T09:04:05;5.35;82.19
79491;SHT31;73788;53.048;18.472;2023-12-28T09:06:32;5.39;82.20
79491;SHT31;73788;53.048;18.472;2023-12-28T09:09:00;5.44;82.20
79491;SHT31;73788;53.048;18.472;2023-12-28T09:11:27;5.50;82.20
79491;SHT31;73788;53.048;18.472;2023-12-28T09:13:55;5.56;82.21
79491;SHT31;73788;53.048;18.472;2023-12-28T09:16:22;5.60;82.23
79491;SHT31;73788;53.048;18.472;2023-12-28T09:18:50;5.66;82.22
79491;SHT31;73788;53.048;18.472;2023-12-28T09:21:17;5.69;82.24
79491;SHT31;73788;53.048;18.472;2023-12-28T09:23:44;5.80;82.29
79491;SHT31;73788;53.048;18.472;2023-12-28T09:26:11;5.90;82.30
79491;SHT31;73788;53.048;18.472;2023-12-28T09:28:38;5.98;82.30
79491;SHT31;73788;53.048;18.472;2023-12-28T09:31:07;5.99;82.30
79491;SHT31;73788;53.048;18.472;2023-12-28T09:33:34;6.03;82.30
79491;SHT31;73788;53.048;18.472;2023-12-28T09:36:04;6.09;82.30
79491;SHT31;73788;53.048;18.472;2023-12-28T09:38:32;6.15;82.31
79491;SHT31;73788;53.048;18.472;2023-12-28T09:41:04;6.25;82.35
79491;SHT31;73788;53.048;18.472;2023-12-28T09:43:44;6.33;82.39
79491;SHT31;73788;53.048;18.472;2023-12-28T09:46:21;6.41;82.38
79491;SHT31;73788;53.048;18.472;2023-12-28T09:48:48;6.48;82.40
79491;SHT31;73788;53.048;18.472;2023-12-28T09:51:16;6.57;82.40
79491;SHT31;73788;53.048;18.472;2023-12-28T09:53:44;6.66;82.40
79491;SHT31;73788;53.048;18.472;2023-12-28T09:56:12;6.71;82.40
79491;SHT31;73788;53.048;18.472;2023-12-28T09:58:43;6.76;82.40
79491;SHT31;73788;53.048;18.472;2023-12-28T10:01:14;6.79;82.40
79491;SHT31;73788;53.048;18.472;2023-12-28T10:03:42;6.85;82.42
79491;SHT31;73788;53.048;18.472;2023-12-28T10:06:09;6.93;82.42
79491;SHT31;73788;53.048;18.472;2023-12-28T10:08:36;6.98;82.44
79491;SHT31;73788;53.048;18.472;2023-12-28T10:11:11;7.02;82.44
79491;SHT31;73788;53.048;18.472;2023-12-28T10:13:38;7.07;82.46
79491;SHT31;73788;53.048;18.472;2023-12-28T10:16:07;7.12;82.47
79491;SHT31;73788;53.048;18.472;2023-12-28T10:18:36;7.14;82.48
79491;SHT31;73788;53.048;18.472;2023-12-28T10:21:06;7.20;82.48
79491;SHT31;73788;53.048;18.472;2023-12-28T10:23:34;7.23;82.49
79491;SHT31;73788;53.048;18.472;2023-12-28T10:26:01;7.30;82.49
79491;SHT31;73788;53.048;18.472;2023-12-28T10:28:34;7.38;82.49
79491;SHT31;73788;53.048;18.472;2023-12-28T10:31:06;7.44;82.50
79491;SHT31;73788;53.048;18.472;2023-12-28T10:33:34;7.44;82.48
79491;SHT31;73788;53.048;18.472;2023-12-28T10:36:06;7.43;82.49
79491;SHT31;73788;53.048;18.472;2023-12-28T10:38:35;7.44;82.50
79491;SHT31;73788;53.048;18.472;2023-12-28T10:41:04;7.51;82.49
79491;SHT31;73788;53.048;18.472;2023-12-28T10:43:51;7.53;82.49
79491;SHT31;73788;53.048;18.472;2023-12-28T10:46:32;7.53;82.45
79491;SHT31;73788;53.048;18.472;2023-12-28T10:49:05;7.55;82.49
79491;SHT31;73788;53.048;18.472;2023-12-28T10:51:41;7.57;82.45
79491;SHT31;73788;53.048;18.472;2023-12-28T10:54:32;7.59;82.43
79491;SHT31;73788;53.048;18.472;2023-12-28T10:57:40;7.60;82.43
79491;SHT31;73788;53.048;18.472;2023-12-28T11:00:30;7.64;82.41
79491;SHT31;73788;53.048;18.472;2023-12-28T11:03:06;7.69;82.40
79491;SHT31;73788;53.048;18.472;2023-12-28T11:05:38;7.72;82.41
79491;SHT31;73788;53.048;18.472;2023-12-28T11:08:09;7.76;82.40
79491;SHT31;73788;53.048;18.472;2023-12-28T11:10:40;7.76;82.40
79491;SHT31;73788;53.048;18.472;2023-12-28T11:13:09;7.79;82.40
79491;SHT31;73788;53.048;18.472;2023-12-28T11:15:37;7.83;82.39
79491;SHT31;73788;53.048;18.472;2023-12-28T11:18:05;7.86;82.39
79491;SHT31;73788;53.048;18.472;2023-12-28T11:20:32;7.89;82.38
79491;SHT31;73788;53.048;18.472;2023-12-28T11:23:00;7.87;82.32
79491;SHT31;73788;53.048;18.472;2023-12-28T11:25:32;7.86;82.32
79491;SHT31;73788;53.048;18.472;2023-12-28T11:28:00;7.88;82.31
79491;SHT31;73788;53.048;18.472;2023-12-28T11:30:38;7.92;82.30
79491;SHT31;73788;53.048;18.472;2023-12-28T11:33:10;7.93;82.30
79491;SHT31;73788;53.048;18.472;2023-12-28T11:35:40;7.93;82.29
79491;SHT31;73788;53.048;18.472;2023-12-28T11:38:08;7.89;82.28
79491;SHT31;73788;53.048;18.472;2023-12-28T11:40:46;7.90;82.25
79491;SHT31;73788;53.048;18.472;2023-12-28T11:43:18;7.91;82.21
79491;SHT31;73788;53.048;18.472;2023-12-28T11:45:50;7.91;82.20
79491;SHT31;73788;53.048;18.472;2023-12-28T11:48:22;7.92;82.21
79491;SHT31;73788;53.048;18.472;2023-12-28T11:50:54;7.89;82.19
79491;SHT31;73788;53.048;18.472;2023-12-28T11:53:26;7.89;82.17
79491;SHT31;73788;53.048;18.472;2023-12-28T11:56:00;7.92;82.12
79491;SHT31;73788;53.048;18.472;2023-12-28T11:58:31;7.94;82.10
79491;SHT31;73788;53.048;18.472;2023-12-28T12:01:00;7.96;82.10
79491;SHT31;73788;53.048;18.472;2023-12-28T12:03:28;7.97;82.09
79491;SHT31;73788;53.048;18.472;2023-12-28T12:05:58;7.98;82.05
79491;SHT31;73788;53.048;18.472;2023-12-28T12:08:25;7.99;82.00
79491;SHT31;73788;53.048;18.472;2023-12-28T12:11:02;8.01;82.01
79491;SHT31;73788;53.048;18.472;2023-12-28T12:13:34;8.04;82.00
79491;SHT31;73788;53.048;18.472;2023-12-28T12:16:02;8.02;81.98
79491;SHT31;73788;53.048;18.472;2023-12-28T12:18:32;8.02;81.93
79491;SHT31;73788;53.048;18.472;2023-12-28T12:21:00;8.04;81.90
79491;SHT31;73788;53.048;18.472;2023-12-28T12:23:29;8.05;81.90
79491;SHT31;73788;53.048;18.472;2023-12-28T12:25:57;8.07;81.90
79491;SHT31;73788;53.048;18.472;2023-12-28T12:28:25;8.03;81.82
79491;SHT31;73788;53.048;18.472;2023-12-28T12:30:55;8.01;81.80
79491;SHT31;73788;53.048;18.472;2023-12-28T12:33:23;7.99;81.80
79491;SHT31;73788;53.048;18.472;2023-12-28T12:35:52;7.96;81.79
79491;SHT31;73788;53.048;18.472;2023-12-28T12:38:20;7.95;81.72
79491;SHT31;73788;53.048;18.472;2023-12-28T12:40:52;7.99;81.70
79491;SHT31;73788;53.048;18.472;2023-12-28T12:43:19;8.08;81.69
79491;SHT31;73788;53.048;18.472;2023-12-28T12:45:48;8.11;81.69
79491;SHT31;73788;53.048;18.472;2023-12-28T12:48:16;8.19;81.63
79491;SHT31;73788;53.048;18.472;2023-12-28T12:50:43;8.26;81.60
79491;SHT31;73788;53.048;18.472;2023-12-28T12:53:11;8.39;81.60
79491;SHT31;73788;53.048;18.472;2023-12-28T12:55:39;8.44;81.57
79491;SHT31;73788;53.048;18.472;2023-12-28T12:58:06;8.48;81.54
79491;SHT31;73788;53.048;18.472;2023-12-28T13:00:33;8.51;81.51
79491;SHT31;73788;53.048;18.472;2023-12-28T13:03:01;8.44;81.50
79491;SHT31;73788;53.048;18.472;2023-12-28T13:05:29;8.44;81.46
79491;SHT31;73788;53.048;18.472;2023-12-28T13:07:56;8.30;81.40
79491;SHT31;73788;53.048;18.472;2023-12-28T13:10:24;8.15;81.37
79491;SHT31;73788;53.048;18.472;2023-12-28T13:12:51;8.08;81.33
79491;SHT31;73788;53.048;18.472;2023-12-28T13:15:18;7.97;81.30
79491;SHT31;73788;53.048;18.472;2023-12-28T13:17:45;7.83;81.22
79491;SHT31;73788;53.048;18.472;2023-12-28T13:20:13;7.74;81.21
79491;SHT31;73788;53.048;18.472;2023-12-28T13:22:40;7.65;81.19
79491;SHT31;73788;53.048;18.472;2023-12-28T13:25:07;7.62;81.13
79491;SHT31;73788;53.048;18.472;2023-12-28T13:27:34;7.64;81.10
79491;SHT31;73788;53.048;18.472;2023-12-28T13:30:02;7.61;81.10
79491;SHT31;73788;53.048;18.472;2023-12-28T13:32:29;7.53;81.05
79491;SHT31;73788;53.048;18.472;2023-12-28T13:34:56;7.43;81.00
79491;SHT31;73788;53.048;18.472;2023-12-28T13:37:23;7.31;81.00
79491;SHT31;73788;53.048;18.472;2023-12-28T13:39:50;7.26;80.95
79491;SHT31;73788;53.048;18.472;2023-12-28T13:42:17;7.17;80.90
79491;SHT31;73788;53.048;18.472;2023-12-28T13:44:44;7.07;80.89
79491;SHT31;73788;53.048;18.472;2023-12-28T13:47:11;6.95;80.81
79491;SHT31;73788;53.048;18.472;2023-12-28T13:49:39;6.85;80.80
79491;SHT31;73788;53.048;18.472;2023-12-28T13:52:06;6.82;80.79
79491;SHT31;73788;53.048;18.472;2023-12-28T13:54:33;6.77;80.74
79491;SHT31;73788;53.048;18.472;2023-12-28T13:57:00;6.76;80.70
79491;SHT31;73788;53.048;18.472;2023-12-28T13:59:27;6.76;80.70
79491;SHT31;73788;53.048;18.472;2023-12-28T14:01:54;6.75;80.68
79491;SHT31;73788;53.048;18.472;2023-12-28T14:04:22;6.76;80.64
79491;SHT31;73788;53.048;18.472;2023-12-28T14:06:49;6.76;80.60
79491;SHT31;73788;53.048;18.472;2023-12-28T14:09:16;6.76;80.60
79491;SHT31;73788;53.048;18.472;2023-12-28T14:11:46;6.67;80.60
79491;SHT31;73788;53.048;18.472;2023-12-28T14:14:14;6.61;80.55
79491;SHT31;73788;53.048;18.472;2023-12-28T14:16:41;6.60;80.52
79491;SHT31;73788;53.048;18.472;2023-12-28T14:19:09;6.58;80.50
79491;SHT31;73788;53.048;18.472;2023-12-28T14:21:37;6.49;80.50
79491;SHT31;73788;53.048;18.472;2023-12-28T14:24:05;6.42;80.42
79491;SHT31;73788;53.048;18.472;2023-12-28T14:26:33;6.29;80.40
79491;SHT31;73788;53.048;18.472;2023-12-28T14:29:06;6.19;80.40
79491;SHT31;73788;53.048;18.472;2023-12-28T14:31:35;6.06;80.36
79491;SHT31;73788;53.048;18.472;2023-12-28T14:34:02;6.01;80.33
79491;SHT31;73788;53.048;18.472;2023-12-28T14:36:31;5.97;80.30
79491;SHT31;73788;53.048;18.472;2023-12-28T14:39:02;5.94;80.30
79491;SHT31;73788;53.048;18.472;2023-12-28T14:41:32;5.89;80.30
79491;SHT31;73788;53.048;18.472;2023-12-28T14:44:04;5.86;80.29
79491;SHT31;73788;53.048;18.472;2023-12-28T14:46:31;5.88;80.29
79491;SHT31;73788;53.048;18.472;2023-12-28T14:48:58;5.85;80.23
79491;SHT31;73788;53.048;18.472;2023-12-28T14:51:27;5.84;80.20
79491;SHT31;73788;53.048;18.472;2023-12-28T14:53:54;5.85;80.20
79491;SHT31;73788;53.048;18.472;2023-12-28T14:56:21;5.80;80.20
79491;SHT31;73788;53.048;18.472;2023-12-28T14:58:48;5.78;80.20
79491;SHT31;73788;53.048;18.472;2023-12-28T15:01:16;5.77;80.20
79491;SHT31;73788;53.048;18.472;2023-12-28T15:03:46;5.76;80.19
79491;SHT31;73788;53.048;18.472;2023-12-28T15:06:14;5.71;80.19
79491;SHT31;73788;53.048;18.472;2023-12-28T15:08:41;5.80;80.18
79491;SHT31;73788;53.048;18.472;2023-12-28T15:11:09;5.87;80.20
79491;SHT31;73788;53.048;18.472;2023-12-28T15:13:37;5.82;80.15
79491;SHT31;73788;53.048;18.472;2023-12-28T15:16:05;5.78;80.13
79491;SHT31;73788;53.048;18.472;2023-12-28T15:18:33;5.72;80.12
79491;SHT31;73788;53.048;18.472;2023-12-28T15:21:01;5.64;80.11
79491;SHT31;73788;53.048;18.472;2023-12-28T15:23:28;5.60;80.10
79491;SHT31;73788;53.048;18.472;2023-12-28T15:25:56;5.57;80.10
79491;SHT31;73788;53.048;18.472;2023-12-28T15:28:23;5.56;80.10
79491;SHT31;73788;53.048;18.472;2023-12-28T15:30:51;5.56;80.10
79491;SHT31;73788;53.048;18.472;2023-12-28T15:33:18;5.54;80.10
79491;SHT31;73788;53.048;18.472;2023-12-28T15:35:45;5.50;80.09
79491;SHT31;73788;53.048;18.472;2023-12-28T15:38:12;5.50;80.10